createdAt,value
2019-04-26T00:00:47.503Z,98267.59
2019-04-26T00:04:01.056Z,98266.75
2019-04-26T00:07:15.027Z,98271.95
2019-04-26T00:10:44.453Z,98271.55
2019-04-26T00:14:19.341Z,98265.38
2019-04-26T00:17:39.780Z,98265.38
2019-04-26T00:20:53.756Z,98252.42
2019-04-26T00:24:07.222Z,98276.86
2019-04-26T00:27:21.314Z,98292.28
2019-04-26T00:30:35.112Z,98307.10
2019-04-26T00:33:48.568Z,98311.41
2019-04-26T00:37:02.415Z,98306.38
2019-04-26T00:40:16.249Z,98295.10
2019-04-26T00:43:30.036Z,98276.29
2019-04-26T00:46:46.206Z,98294.73
2019-04-26T00:50:00.548Z,98306.08
2019-04-26T00:53:15.923Z,98310.81
2019-04-26T00:56:30.188Z,98309.14
2019-04-26T00:59:43.961Z,98305.41
2019-04-26T01:02:58.118Z,98301.86
2019-04-26T01:06:14.490Z,98296.70
2019-04-26T01:09:28.853Z,98287.95
2019-04-26T01:12:42.537Z,98300.01
2019-04-26T01:15:55.998Z,98304.66
2019-04-26T01:19:11.367Z,98292.81
2019-04-26T01:22:28.752Z,98293.97
2019-04-26T01:25:56.908Z,98281.30
2019-04-26T01:29:12.784Z,98290.58
2019-04-26T01:32:28.260Z,98283.88
2019-04-26T01:35:42.525Z,98275.41
2019-04-26T01:39:00.868Z,98277.21
2019-04-26T01:42:33.811Z,98288.86
2019-04-26T01:45:55.974Z,98302.89
2019-04-26T01:49:10.678Z,98312.87
2019-04-26T01:52:25.567Z,98325.99
2019-04-26T01:55:39.581Z,98329.24
2019-04-26T01:58:53.389Z,98325.80
2019-04-26T02:02:29.889Z,98326.81
2019-04-26T02:05:43.523Z,98299.58
2019-04-26T02:08:57.474Z,98268.80
2019-04-26T02:12:11.342Z,98276.41
2019-04-26T02:15:29.179Z,98296.75
2019-04-26T02:18:43.023Z,98297.23
2019-04-26T02:22:22.243Z,98293.31
2019-04-26T02:25:35.943Z,98304.66
2019-04-26T02:28:49.624Z,98306.16
2019-04-26T02:32:03.940Z,98312.02
2019-04-26T02:35:17.682Z,98322.29
2019-04-26T02:38:32.889Z,98312.33
2019-04-26T02:41:53.677Z,98316.23
2019-04-26T02:45:50.629Z,98328.12
2019-04-26T02:49:28.599Z,98321.52
2019-04-26T02:53:11.937Z,98329.02
2019-04-26T02:56:53.031Z,98347.44
2019-04-26T03:00:10.526Z,98335.92
2019-04-26T03:03:24.717Z,98331.78
2019-04-26T03:06:42.876Z,98338.82
2019-04-26T03:09:57.306Z,98365.70
2019-04-26T03:13:25.427Z,98375.87
2019-04-26T03:16:53.461Z,98379.44
2019-04-26T03:20:11.958Z,98368.03
2019-04-26T03:23:53.288Z,98355.25
2019-04-26T03:27:23.267Z,98349.61
2019-04-26T03:30:52.324Z,98350.48
2019-04-26T03:34:22.914Z,98355.68
2019-04-26T03:38:06.134Z,98359.42
2019-04-26T03:41:39.007Z,98374.98
2019-04-26T03:45:25.181Z,98371.22
2019-04-26T03:49:05.064Z,98372.42
2019-04-26T03:52:56.639Z,98376.14
2019-04-26T03:56:27.343Z,98367.23
2019-04-26T04:00:38.778Z,98358.05
2019-04-26T04:03:57.170Z,98357.56
2019-04-26T04:07:13.843Z,98358.27
2019-04-26T04:10:33.880Z,98355.30
2019-04-26T04:14:04.250Z,98351.74
2019-04-26T04:17:49.516Z,98353.79
2019-04-26T04:21:34.200Z,98372.91
2019-04-26T04:24:52.932Z,98382.79
2019-04-26T04:28:34.845Z,98381.98
2019-04-26T04:31:53.551Z,98391.17
2019-04-26T04:35:10.872Z,98382.03
2019-04-26T04:38:49.522Z,98380.73
2019-04-26T04:42:56.607Z,98392.11
2019-04-26T04:46:30.498Z,98384.98
2019-04-26T04:50:20.163Z,98385.98
2019-04-26T04:53:49.746Z,98395.23
2019-04-26T04:57:20.071Z,98394.68
2019-04-26T05:01:24.965Z,98401.02
2019-04-26T05:05:08.395Z,98417.13
2019-04-26T05:08:40.147Z,98417.76
2019-04-26T05:16:55.603Z,98440.38
2019-04-26T05:20:22.502Z,98455.61
2019-04-26T05:23:57.842Z,98462.64
2019-04-26T05:27:40.294Z,98464.41
2019-04-26T05:31:24.335Z,98490.56
2019-04-26T05:34:50.662Z,98499.86
2019-04-26T05:38:18.575Z,98512.89
2019-04-26T05:41:55.669Z,98512.84
2019-04-26T05:45:37.362Z,98518.23
2019-04-26T05:49:59.845Z,98521.86
2019-04-26T05:54:09.166Z,98525.38
2019-04-26T05:57:51.025Z,98502.58
2019-04-26T06:01:56.991Z,98488.09
2019-04-26T06:05:23.116Z,98496.25
2019-04-26T06:09:52.779Z,98494.02
2019-04-26T06:13:36.447Z,98493.83
2019-04-26T06:17:33.725Z,98516.64
2019-04-26T06:21:10.755Z,98516.97
2019-04-26T06:24:33.827Z,98518.10
2019-04-26T06:27:58.308Z,98517.36
2019-04-26T06:31:27.531Z,98507.01
2019-04-26T06:35:20.714Z,98505.06
2019-04-26T06:38:54.564Z,98511.74
2019-04-26T06:42:30.075Z,98520.70
2019-04-26T06:46:06.468Z,98533.98
2019-04-26T06:50:05.569Z,98542.09
2019-04-26T06:53:39.088Z,98561.45
2019-04-26T06:58:05.168Z,98564.53
2019-04-26T07:01:59.178Z,98549.48
2019-04-26T07:05:19.916Z,98550.86
2019-04-26T07:08:57.544Z,98568.95
2019-04-26T07:12:45.601Z,98562.20
2019-04-26T07:16:22.278Z,98583.22
2019-04-26T07:20:42.446Z,98588.26
2019-04-26T07:24:52.562Z,98589.60
2019-04-26T07:28:26.433Z,98581.30
2019-04-26T07:31:54.335Z,98579.28
2019-04-26T07:35:16.406Z,98577.59
2019-04-26T07:39:20.213Z,98569.66
2019-04-26T07:43:27.906Z,98579.14
2019-04-26T07:47:06.003Z,98582.04
2019-04-26T07:51:04.402Z,98586.69
2019-04-26T07:55:03.190Z,98582.67
2019-04-26T07:59:11.226Z,98583.12
2019-04-26T08:02:58.736Z,98589.70
2019-04-26T08:06:35.978Z,98594.02
2019-04-26T08:10:00.180Z,98599.13
2019-04-26T08:13:17.759Z,98597.42
2019-04-26T08:17:02.450Z,98597.80
2019-04-26T08:20:33.145Z,98595.96
2019-04-26T08:24:09.962Z,98606.02
2019-04-26T08:27:27.155Z,98604.29
2019-04-26T08:30:46.244Z,98604.77
2019-04-26T08:34:07.514Z,98627.46
2019-04-26T08:37:36.542Z,98626.64
2019-04-26T08:40:51.465Z,98632.08
2019-04-26T08:44:14.699Z,98642.00
2019-04-26T08:47:55.394Z,98645.00
2019-04-26T08:51:15.367Z,98650.18
2019-04-26T08:54:35.375Z,98656.94
2019-04-26T08:57:52.624Z,98648.70
2019-04-26T09:01:28.313Z,98647.08
2019-04-26T09:04:59.167Z,98636.05
2019-04-26T09:08:16.621Z,98634.16
2019-04-26T09:11:33.977Z,98636.77
2019-04-26T09:14:53.719Z,98646.54
2019-04-26T09:18:07.816Z,98648.91
2019-04-26T09:21:37.186Z,98647.14
2019-04-26T09:24:59.408Z,98660.74
2019-04-26T09:28:17.078Z,98664.65
2019-04-26T09:31:39.463Z,98664.73
2019-04-26T09:34:53.037Z,98670.08
2019-04-26T09:38:06.800Z,98677.03
2019-04-26T09:41:20.827Z,98679.80
2019-04-26T09:44:41.382Z,98677.20
2019-04-26T09:48:00.683Z,98656.25
2019-04-26T09:51:14.654Z,98665.32
2019-04-26T09:54:28.135Z,98668.09
2019-04-26T09:57:41.712Z,98662.74
2019-04-26T10:00:55.309Z,98661.36
2019-04-26T10:04:08.764Z,98664.58
2019-04-26T10:07:22.248Z,98685.58
2019-04-26T10:10:36.456Z,98692.70
2019-04-26T10:14:18.727Z,98700.13
2019-04-26T10:17:32.709Z,98699.52
2019-04-26T10:20:46.491Z,98706.36
2019-04-26T10:24:00.372Z,98711.42
2019-04-26T10:27:14.604Z,98710.86
2019-04-26T10:30:28.367Z,98708.64
2019-04-26T10:33:47.097Z,98696.78
2019-04-26T10:37:01.535Z,98697.39
2019-04-26T10:40:16.839Z,98694.62
2019-04-26T10:43:30.769Z,98684.13
2019-04-26T10:46:55.007Z,98682.05
2019-04-26T10:50:00.611Z,98685.54
2019-04-26T10:53:32.007Z,98676.44
2019-04-26T10:57:11.284Z,98673.04
2019-04-26T11:00:38.228Z,98669.42
2019-04-26T11:03:52.670Z,98664.05
2019-04-26T11:07:06.624Z,98656.44
2019-04-26T11:10:20.715Z,98657.80
2019-04-26T11:13:34.673Z,98648.50
2019-04-26T11:16:48.354Z,98653.95
2019-04-26T11:20:02.305Z,98660.59
2019-04-26T11:23:16.475Z,98667.02
2019-04-26T11:26:31.108Z,98673.45
2019-04-26T11:29:53.597Z,98668.67
2019-04-26T11:33:02.073Z,98669.55
2019-04-26T11:36:15.751Z,98683.94
2019-04-26T11:39:29.629Z,98678.22
2019-04-26T11:42:45.686Z,98686.48
2019-04-26T11:46:04.406Z,98702.71
2019-04-26T11:49:15.101Z,98706.00
2019-04-26T11:52:32.167Z,98706.29
2019-04-26T11:55:45.735Z,98711.85
2019-04-26T11:58:59.306Z,98711.50
2019-04-26T12:02:16.199Z,98711.94
2019-04-26T12:05:46.971Z,98707.58
2019-04-26T12:09:12.112Z,98699.16
2019-04-26T12:16:32.868Z,98692.20
2019-04-26T12:19:48.290Z,98700.27
2019-04-26T12:23:02.179Z,98706.66
2019-04-26T12:26:17.356Z,98702.02
2019-04-26T12:29:31.490Z,98708.16
2019-04-26T12:32:45.278Z,98707.27
2019-04-26T12:35:59.283Z,98714.06
2019-04-26T12:39:14.730Z,98719.91
2019-04-26T12:42:28.584Z,98725.95
2019-04-26T12:46:10.962Z,98722.50
2019-04-26T12:49:25.413Z,98719.80
2019-04-26T12:52:39.414Z,98712.21
2019-04-26T12:55:56.197Z,98715.38
2019-04-26T12:59:08.543Z,98707.15
2019-04-26T13:02:22.148Z,98709.70
2019-04-26T13:05:35.905Z,98709.72
2019-04-26T13:08:51.389Z,98711.61
2019-04-26T13:12:19.867Z,98720.09
2019-04-26T13:16:16.835Z,98710.44
2019-04-26T13:19:30.742Z,98702.41
2019-04-26T13:22:46.218Z,98697.47
2019-04-26T13:26:01.610Z,98685.26
2019-04-26T13:29:15.279Z,98690.39
2019-04-26T13:32:28.748Z,98701.92
2019-04-26T13:35:45.440Z,98713.26
2019-04-26T13:38:57.963Z,98726.45
2019-04-26T13:42:13.608Z,98711.25
2019-04-26T13:45:50.249Z,98715.88
2019-04-26T13:49:18.138Z,98710.96
2019-04-26T13:52:31.402Z,98721.34
2019-04-26T13:55:45.126Z,98727.96
2019-04-26T13:58:59.908Z,98713.81
2019-04-26T14:02:14.059Z,98712.68
2019-04-26T14:05:27.812Z,98713.24
2019-04-26T14:08:41.885Z,98713.78
2019-04-26T14:11:58.062Z,98712.20
2019-04-26T14:15:11.489Z,98720.02
2019-04-26T14:18:25.539Z,98713.28
2019-04-26T14:21:39.268Z,98708.80
2019-04-26T14:24:59.576Z,98708.98
2019-04-26T14:28:13.300Z,98707.68
2019-04-26T14:31:27.331Z,98714.09
2019-04-26T14:34:42.015Z,98712.14
2019-04-26T14:37:56.233Z,98715.06
2019-04-26T14:41:13.320Z,98708.27
2019-04-26T14:44:27.125Z,98714.91
2019-04-26T14:47:47.542Z,98711.52
2019-04-26T14:51:07.426Z,98703.09
2019-04-26T14:54:12.946Z,98690.35
2019-04-26T14:57:31.434Z,98688.92
2019-04-26T15:00:44.561Z,98692.31
2019-04-26T15:04:20.844Z,98699.94
2019-04-26T15:07:35.079Z,98703.50
2019-04-26T15:10:57.739Z,98699.11
2019-04-26T15:14:05.711Z,98697.47
2019-04-26T15:17:20.153Z,98689.95
2019-04-26T15:20:34.782Z,98688.13
2019-04-26T15:23:48.527Z,98690.84
2019-04-26T15:27:03.346Z,98696.40
2019-04-26T15:30:17.092Z,98688.02
2019-04-26T15:33:32.372Z,98688.59
2019-04-26T15:36:47.974Z,98693.16
2019-04-26T15:40:16.711Z,98693.70
2019-04-26T15:43:50.217Z,98703.20
2019-04-26T15:47:13.091Z,98696.30
2019-04-26T15:50:47.796Z,98702.37
2019-04-26T15:53:56.825Z,98694.96
2019-04-26T15:57:12.297Z,98688.70
2019-04-26T16:00:28.370Z,98683.63
2019-04-26T16:03:44.578Z,98688.02
2019-04-26T16:06:58.264Z,98684.65
2019-04-26T16:10:12.212Z,98692.76
2019-04-26T16:13:26.486Z,98696.41
2019-04-26T16:16:40.224Z,98687.86
2019-04-26T16:19:56.056Z,98683.08
2019-04-26T16:23:09.551Z,98682.20
2019-04-26T16:26:23.143Z,98677.39
2019-04-26T16:29:50.878Z,98678.64
2019-04-26T16:33:28.414Z,98676.06
2019-04-26T16:39:57.941Z,98674.64
2019-04-26T16:43:12.551Z,98681.50
2019-04-26T16:46:26.912Z,98688.99
2019-04-26T16:49:41.946Z,98697.28
2019-04-26T16:52:56.291Z,98695.31
2019-04-26T16:56:09.820Z,98694.55
2019-04-26T16:59:26.596Z,98695.45
2019-04-26T17:02:39.411Z,98693.31
2019-04-26T17:06:04.753Z,98696.95
2019-04-26T17:09:08.771Z,98695.61
2019-04-26T17:09:51.459Z,98676.97
2019-04-26T17:12:24.634Z,98700.78
2019-04-26T17:15:38.149Z,98693.05
2019-04-26T17:18:55.616Z,98693.27
2019-04-26T17:22:16.077Z,98698.29
2019-04-26T17:25:55.221Z,98690.59
2019-04-26T17:29:08.120Z,98701.30
2019-04-26T17:32:23.267Z,98696.89
2019-04-26T17:35:41.038Z,98705.22
2019-04-26T17:38:52.995Z,98709.69
2019-04-26T17:42:06.753Z,98710.76
2019-04-26T17:45:21.238Z,98711.24
2019-04-26T17:48:34.979Z,98716.55
2019-04-26T17:51:51.696Z,98714.63
2019-04-26T17:55:07.847Z,98722.00
2019-04-26T17:58:27.752Z,98723.39
2019-04-26T18:01:45.574Z,98721.42
2019-04-26T18:05:00.255Z,98715.40
2019-04-26T18:08:31.596Z,98712.16
2019-04-26T18:11:24.915Z,98711.54
2019-04-26T18:14:38.631Z,98719.74
2019-04-26T18:18:30.333Z,98721.34
2019-04-26T18:22:00.158Z,98730.81
2019-04-26T18:25:14.678Z,98736.03
2019-04-26T18:28:28.403Z,98741.27
2019-04-26T18:31:43.846Z,98746.91
2019-04-26T18:34:57.393Z,98747.41
2019-04-26T18:38:12.609Z,98751.81
2019-04-26T18:41:28.667Z,98755.72
2019-04-26T18:44:47.373Z,98755.16
2019-04-26T18:48:01.401Z,98765.63
2019-04-26T18:51:13.834Z,98767.41
2019-04-26T18:54:36.152Z,98778.30
2019-04-26T18:57:55.227Z,98782.19
2019-04-26T19:01:06.419Z,98790.86
2019-04-26T19:04:19.890Z,98806.47
2019-04-26T19:07:33.469Z,98802.02
2019-04-26T19:10:58.478Z,98804.80
2019-04-26T19:14:21.920Z,98813.42
2019-04-26T19:18:04.278Z,98816.29
2019-04-26T19:21:32.375Z,98819.98
2019-04-26T19:24:49.424Z,98816.18
2019-04-26T19:28:04.426Z,98823.20
2019-04-26T19:31:19.232Z,98821.30
2019-04-26T19:34:32.899Z,98818.70
2019-04-26T19:37:46.376Z,98817.42
2019-04-26T19:40:59.845Z,98820.05
2019-04-26T19:44:14.689Z,98820.09
2019-04-26T19:47:39.474Z,98816.50
2019-04-26T19:51:15.142Z,98813.94
2019-04-26T19:54:41.878Z,98816.81
2019-04-26T19:58:01.829Z,98817.63
2019-04-26T20:01:16.625Z,98812.27
2019-04-26T20:04:34.008Z,98816.52
2019-04-26T20:07:46.496Z,98812.87
2019-04-26T20:11:01.355Z,98808.80
2019-04-26T20:14:15.624Z,98811.14
2019-04-26T20:17:29.482Z,98804.77
2019-04-26T20:20:43.046Z,98811.90
2019-04-26T20:23:56.509Z,98813.80
2019-04-26T20:27:15.656Z,98813.41
2019-04-26T20:30:44.091Z,98811.33
2019-04-26T20:33:57.620Z,98810.20
2019-04-26T20:37:11.425Z,98814.80
2019-04-26T20:40:25.754Z,98814.75
2019-04-26T20:43:44.354Z,98819.88
2019-04-26T20:46:54.770Z,98825.31
2019-04-26T20:50:08.424Z,98828.38
2019-04-26T20:53:21.910Z,98825.93
2019-04-26T20:56:35.495Z,98831.69
2019-04-26T20:59:52.080Z,98828.59
2019-04-26T21:03:06.205Z,98834.78
2019-04-26T21:06:19.851Z,98836.28
2019-04-26T21:09:36.443Z,98838.28
2019-04-26T21:16:38.828Z,98834.84
2019-04-26T21:19:54.882Z,98841.13
2019-04-26T21:23:08.333Z,98842.97
2019-04-26T21:26:46.558Z,98841.45
2019-04-26T21:30:18.505Z,98842.87
2019-04-26T21:33:39.256Z,98844.71
2019-04-26T21:37:11.325Z,98848.79
2019-04-26T21:40:34.331Z,98843.81
2019-04-26T21:43:47.808Z,98847.27
2019-04-26T21:47:03.255Z,98852.80
2019-04-26T21:50:16.887Z,98847.89
2019-04-26T21:53:30.475Z,98855.36
2019-04-26T21:56:48.755Z,98857.96
2019-04-26T21:59:59.557Z,98857.73
2019-04-26T22:03:16.014Z,98859.18
2019-04-26T22:06:28.935Z,98861.52
2019-04-26T22:10:01.163Z,98865.46
2019-04-26T22:13:30.269Z,98859.61
2019-04-26T22:16:49.777Z,98866.75
2019-04-26T22:20:26.106Z,98866.65
2019-04-26T22:23:47.605Z,98870.33
2019-04-26T22:27:03.849Z,98861.12
2019-04-26T22:30:28.278Z,98866.75
2019-04-26T22:33:39.179Z,98856.05
2019-04-26T22:36:53.688Z,98855.44
2019-04-26T22:40:10.540Z,98857.77
2019-04-26T22:43:31.868Z,98861.48
2019-04-26T22:47:14.110Z,98856.48
2019-04-26T22:50:27.829Z,98860.63
2019-04-26T22:53:42.980Z,98862.17
2019-04-26T22:56:57.083Z,98865.50
2019-04-26T23:00:10.871Z,98854.97
2019-04-26T23:03:24.672Z,98857.27
2019-04-26T23:06:38.143Z,98852.90
2019-04-26T23:09:55.131Z,98850.99
2019-04-26T23:13:13.888Z,98849.55
2019-04-26T23:16:40.486Z,98838.27
2019-04-26T23:19:57.536Z,98845.56
2019-04-26T23:23:11.275Z,98835.44
2019-04-26T23:26:24.832Z,98845.70
2019-04-26T23:29:38.347Z,98841.92
2019-04-26T23:32:52.201Z,98836.03
2019-04-26T23:36:06.695Z,98833.96
2019-04-26T23:39:20.422Z,98836.52
2019-04-26T23:42:33.987Z,98829.19
2019-04-26T23:45:48.444Z,98835.90
2019-04-26T23:49:03.091Z,98825.41
2019-04-26T23:52:18.599Z,98828.11
2019-04-26T23:55:33.707Z,98819.23
2019-04-26T23:58:47.723Z,98818.21
